GRG weather

Gardez Airport
Gardez, Paktia Province, Afghanistan

Public forecast

Using degrees Celsius for public forecast. Weather courtesy of forecast.io.

METAR (pilot weather report)

Closest report is Hamid Karzai International Airport, 56.1 nm (103.9 km) N. Retrieved 2019/08/21 21:50 UTC (29 minutes ago):

OAKB 212150Z 12003KT CAVOK 18/01 Q1015 NOSIG RMK A3000 BLU BLU

TAF (pilot weather forecast)

Closest forecast is Hamid Karzai International Airport, 56.1 nm (103.9 km) N. Retrieved 2019/08/21 18:05 UTC (4 hours ago):

TAF OAKB 211705Z 2118/2218 VRB02KT CAVOK BECMG 2206/2208 08010KT TEMPO 2212/2216 03015G25KT